Time;durP1;ratioP1;P1;durP2;ratioP2;P2;SDS_P1;SDS_P2;PMS_P1;PMS_P2;Temp;Humidity;BMP_temperature;BMP_pressure;BME280_temperature;BME280_humidity;BME280_pressure;Samples;Min_cycle;Max_cycle;Signal;HPM_P1;HPM_P2
2021/05/04 00:03:00;;;;;;;11.35;3.00;;;;;;;;;;6901102;28;20088;-81
2021/05/04 00:06:20;;;;;;;15.48;3.55;;;;;;;;;;6895681;28;20472;-81
2021/05/04 00:09:41;;;;;;;24.55;3.35;;;;;;;;;;6895983;28;20058;-81
2021/05/04 00:13:01;;;;;;;17.02;3.30;;;;;;;;;;6894942;28;20042;-81
2021/05/04 00:16:22;;;;;;;12.85;2.58;;;;;;;;;;6895436;28;20050;-81
2021/05/04 00:19:42;;;;;;;14.73;3.00;;;;;;;;;;6909553;28;20030;-81
2021/05/04 00:23:03;;;;;;;7.55;2.90;;;;;;;;;;6895133;28;20109;-81
2021/05/04 00:26:24;;;;;;;14.05;3.25;;;;;;;;;;6902534;28;20034;-81
2021/05/04 00:29:44;;;;;;;10.52;3.13;;;;;;;;;;6896090;23;20059;-81
2021/05/04 00:33:05;;;;;;;15.30;3.05;;;;;;;;;;6868384;28;20122;-80
2021/05/04 00:36:25;;;;;;;9.38;2.80;;;;;;;;;;6868342;28;20027;-81
2021/05/04 00:39:46;;;;;;;11.30;3.17;;;;;;;;;;6877889;28;20049;-81
2021/05/04 00:43:06;;;;;;;9.95;2.83;;;;;;;;;;6868354;28;20417;-81
2021/05/04 00:46:26;;;;;;;9.30;2.90;;;;;;;;;;6864324;28;20034;-80
2021/05/04 00:49:47;;;;;;;7.65;2.40;;;;;;;;;;6856470;28;20086;-81
2021/05/04 00:53:07;;;;;;;9.57;2.40;;;;;;;;;;6854710;28;20027;-80
2021/05/04 00:56:28;;;;;;;14.13;2.55;;;;;;;;;;6867661;28;20054;-81
2021/05/04 00:59:49;;;;;;;6.22;2.28;;;;;;;;;;6880001;28;20456;-81
2021/05/04 01:03:10;;;;;;;4.15;2.35;;;;;;;;;;6867939;28;20473;-81
2021/05/04 01:06:30;;;;;;;8.18;2.13;;;;;;;;;;6849238;28;20094;-80
2021/05/04 01:09:51;;;;;;;7.20;2.55;;;;;;;;;;6865568;28;20083;-80
2021/05/04 01:13:11;;;;;;;8.82;2.20;;;;;;;;;;6868012;28;20066;-80
2021/05/04 01:16:31;;;;;;;8.20;2.42;;;;;;;;;;6856082;28;20034;-80
2021/05/04 01:19:52;;;;;;;6.85;2.50;;;;;;;;;;6870841;28;20023;-79
2021/05/04 01:23:12;;;;;;;6.47;2.00;;;;;;;;;;6866800;28;20033;-80
2021/05/04 01:26:33;;;;;;;7.68;2.65;;;;;;;;;;6867778;28;20448;-80
2021/05/04 01:29:53;;;;;;;7.63;2.65;;;;;;;;;;6868100;28;20058;-80
2021/05/04 01:33:13;;;;;;;4.97;2.15;;;;;;;;;;6867083;28;20066;-80
2021/05/04 01:36:34;;;;;;;8.85;2.90;;;;;;;;;;6871077;28;20066;-80
2021/05/04 01:39:55;;;;;;;4.57;1.90;;;;;;;;;;6878292;28;20030;-80
2021/05/04 01:43:15;;;;;;;8.65;2.15;;;;;;;;;;6872771;28;20055;-80
2021/05/04 01:46:36;;;;;;;5.97;2.97;;;;;;;;;;6872645;28;20038;-80
2021/05/04 01:49:56;;;;;;;9.52;2.80;;;;;;;;;;6873003;28;20105;-80
2021/05/04 01:53:17;;;;;;;7.18;1.92;;;;;;;;;;6872859;28;20033;-80
2021/05/04 01:56:37;;;;;;;7.55;2.38;;;;;;;;;;6875009;28;20044;-80
2021/05/04 01:59:58;;;;;;;12.65;2.25;;;;;;;;;;6881945;28;20038;-80
2021/05/04 02:03:20;;;;;;;5.30;1.92;;;;;;;;;;6872412;28;20034;-79
2021/05/04 02:06:41;;;;;;;7.03;2.20;;;;;;;;;;6871578;28;20085;-80
2021/05/04 02:10:03;;;;;;;5.38;2.15;;;;;;;;;;6869463;28;20054;-79
2021/05/04 02:13:24;;;;;;;5.60;2.33;;;;;;;;;;6871247;28;20038;-79
2021/05/04 02:16:44;;;;;;;6.55;1.98;;;;;;;;;;6873425;28;20109;-79
2021/05/04 02:20:05;;;;;;;8.73;2.17;;;;;;;;;;6871480;28;20113;-79
2021/05/04 02:23:26;;;;;;;8.77;2.10;;;;;;;;;;6871442;28;20069;-78
2021/05/04 02:26:47;;;;;;;4.10;2.10;;;;;;;;;;6871391;28;20031;-79
2021/05/04 02:30:08;;;;;;;6.88;1.80;;;;;;;;;;6871685;28;20062;-79
2021/05/04 02:33:29;;;;;;;4.97;1.80;;;;;;;;;;6871379;28;20046;-79
2021/05/04 02:36:50;;;;;;;6.18;2.17;;;;;;;;;;6873239;28;20031;-79
2021/05/04 02:40:11;;;;;;;5.60;2.17;;;;;;;;;;6871278;28;20074;-79
2021/05/04 02:43:32;;;;;;;3.95;1.95;;;;;;;;;;6870637;28;20035;-79
2021/05/04 02:46:53;;;;;;;3.92;1.98;;;;;;;;;;6871626;28;20031;-80
2021/05/04 02:50:14;;;;;;;5.22;1.80;;;;;;;;;;6870955;28;20046;-79
2021/05/04 02:53:36;;;;;;;3.50;1.90;;;;;;;;;;6870560;28;20054;-79
2021/05/04 02:56:57;;;;;;;3.55;1.75;;;;;;;;;;6870070;28;20389;-79
2021/05/04 03:00:19;;;;;;;5.35;2.08;;;;;;;;;;6871118;28;20504;-79
2021/05/04 03:03:40;;;;;;;5.28;1.58;;;;;;;;;;6873272;28;20376;-79
2021/05/04 03:07:01;;;;;;;6.63;1.80;;;;;;;;;;6870227;28;20515;-79
2021/05/04 03:10:22;;;;;;;6.80;2.00;;;;;;;;;;6870603;28;20078;-79
2021/05/04 03:13:42;;;;;;;6.18;2.10;;;;;;;;;;6874926;28;20030;-80
2021/05/04 03:17:03;;;;;;;5.38;2.05;;;;;;;;;;6869995;28;20023;-80
2021/05/04 03:20:23;;;;;;;3.60;1.80;;;;;;;;;;6870064;28;20118;-80
2021/05/04 03:23:46;;;;;;;4.63;1.65;;;;;;;;;;6869724;28;20074;-80
2021/05/04 03:27:07;;;;;;;2.85;1.80;;;;;;;;;;6852642;28;20058;-80
2021/05/04 03:30:27;;;;;;;5.22;1.80;;;;;;;;;;6870195;28;20089;-79
2021/05/04 03:33:48;;;;;;;5.13;2.05;;;;;;;;;;6873028;28;20026;-80
2021/05/04 03:37:08;;;;;;;3.40;1.73;;;;;;;;;;6869342;28;20037;-80
2021/05/04 03:40:29;;;;;;;3.33;1.67;;;;;;;;;;6870156;28;20030;-79
2021/05/04 03:43:50;;;;;;;2.85;1.50;;;;;;;;;;6869572;28;20027;-80
2021/05/04 03:47:10;;;;;;;4.22;1.75;;;;;;;;;;6869246;28;20023;-80
2021/05/04 03:50:32;;;;;;;2.67;1.35;;;;;;;;;;6851782;28;20037;-79
2021/05/04 03:53:52;;;;;;;2.17;1.30;;;;;;;;;;6869744;28;20110;-79
2021/05/04 03:57:13;;;;;;;4.55;1.90;;;;;;;;;;6868910;28;20027;-79
2021/05/04 04:00:33;;;;;;;3.90;1.83;;;;;;;;;;6868309;28;20019;-80
2021/05/04 04:03:54;;;;;;;5.90;1.98;;;;;;;;;;6869367;28;20038;-79
2021/05/04 04:07:14;;;;;;;4.75;2.13;;;;;;;;;;6868966;28;20062;-79
2021/05/04 04:10:39;;;;;;;2.20;1.60;;;;;;;;;;6869013;28;20034;-79
2021/05/04 04:13:59;;;;;;;3.03;1.55;;;;;;;;;;6868224;28;20046;-79
2021/05/04 04:17:23;;;;;;;2.47;1.40;;;;;;;;;;6868353;28;20420;-78
2021/05/04 04:20:43;;;;;;;6.80;2.05;;;;;;;;;;6867988;28;20069;-79
2021/05/04 04:24:04;;;;;;;1.48;1.35;;;;;;;;;;6881716;28;20050;-79
2021/05/04 04:27:24;;;;;;;3.75;1.55;;;;;;;;;;6868115;28;20457;-79
2021/05/04 04:30:44;;;;;;;3.17;1.50;;;;;;;;;;6868167;28;20505;-79
2021/05/04 04:34:05;;;;;;;4.72;1.45;;;;;;;;;;6867637;28;20041;-79
2021/05/04 04:37:25;;;;;;;3.42;1.90;;;;;;;;;;6868427;28;20070;-79
2021/05/04 04:40:46;;;;;;;2.72;1.63;;;;;;;;;;6867537;28;20031;-79
2021/05/04 04:44:08;;;;;;;2.40;1.52;;;;;;;;;;6869949;28;20039;-79
2021/05/04 04:47:28;;;;;;;3.53;1.77;;;;;;;;;;6867440;28;20034;-78
2021/05/04 04:50:49;;;;;;;2.00;1.15;;;;;;;;;;6867484;28;20062;-80
2021/05/04 04:54:09;;;;;;;2.65;1.50;;;;;;;;;;6867651;28;20038;-79
2021/05/04 04:57:30;;;;;;;2.25;1.30;;;;;;;;;;6867999;28;20037;-78
2021/05/04 05:00:50;;;;;;;2.08;1.42;;;;;;;;;;6871790;28;20034;-78
2021/05/04 05:04:11;;;;;;;2.42;1.45;;;;;;;;;;6868156;28;20074;-81
2021/05/04 05:07:32;;;;;;;5.68;2.05;;;;;;;;;;6867812;28;20105;-80
2021/05/04 05:10:52;;;;;;;2.15;1.40;;;;;;;;;;6869339;28;20109;-82
2021/05/04 05:14:13;;;;;;;1.80;1.42;;;;;;;;;;6873254;28;20070;-78
2021/05/04 05:17:34;;;;;;;3.15;1.20;;;;;;;;;;6872624;28;20031;-80
2021/05/04 05:20:54;;;;;;;1.63;1.25;;;;;;;;;;6876006;28;20042;-78
2021/05/04 05:24:14;;;;;;;2.17;1.50;;;;;;;;;;6876560;28;20035;-78
2021/05/04 05:27:35;;;;;;;2.17;1.42;;;;;;;;;;6872688;28;20034;-79
2021/05/04 05:30:55;;;;;;;2.20;1.40;;;;;;;;;;6876606;28;20069;-79
2021/05/04 05:34:16;;;;;;;2.38;1.23;;;;;;;;;;6877904;28;20109;-78
2021/05/04 05:37:36;;;;;;;4.82;1.73;;;;;;;;;;6873980;28;20035;-78
2021/05/04 05:40:57;;;;;;;4.20;1.60;;;;;;;;;;6877996;28;20066;-78
2021/05/04 05:44:17;;;;;;;3.33;1.30;;;;;;;;;;6871686;28;20035;-78
2021/05/04 05:47:37;;;;;;;2.67;1.67;;;;;;;;;;6875550;28;20037;-77
2021/05/04 05:50:58;;;;;;;3.75;1.50;;;;;;;;;;6871436;28;20066;-78
2021/05/04 05:54:19;;;;;;;4.13;1.58;;;;;;;;;;6870926;28;20027;-77
2021/05/04 05:57:39;;;;;;;1.90;1.08;;;;;;;;;;6873129;28;20026;-78
2021/05/04 06:01:00;;;;;;;3.53;1.40;;;;;;;;;;6870145;28;20027;-79
2021/05/04 06:04:20;;;;;;;2.80;1.42;;;;;;;;;;6868447;28;20063;-78
2021/05/04 06:07:41;;;;;;;3.33;1.73;;;;;;;;;;6874024;28;20062;-78
2021/05/04 06:11:01;;;;;;;3.88;1.77;;;;;;;;;;6870125;28;20034;-78
2021/05/04 06:14:22;;;;;;;2.60;1.40;;;;;;;;;;6870541;28;20031;-78
2021/05/04 06:17:42;;;;;;;2.33;1.30;;;;;;;;;;6870229;28;20038;-78
2021/05/04 06:21:03;;;;;;;2.25;1.42;;;;;;;;;;6869883;28;20481;-79
2021/05/04 06:24:24;;;;;;;3.47;1.33;;;;;;;;;;6869897;28;20023;-79
2021/05/04 06:27:44;;;;;;;4.10;1.85;;;;;;;;;;6867442;28;20038;-78
2021/05/04 06:31:06;;;;;;;2.15;1.25;;;;;;;;;;6870047;28;20030;-76
2021/05/04 06:34:26;;;;;;;1.23;1.13;;;;;;;;;;6875000;28;20360;-78
2021/05/04 06:37:47;;;;;;;5.07;1.30;;;;;;;;;;6873998;28;20074;-78
2021/05/04 06:41:08;;;;;;;3.30;1.15;;;;;;;;;;6865747;28;20042;-77
2021/05/04 06:44:28;;;;;;;1.48;1.30;;;;;;;;;;6869204;28;20066;-78
2021/05/04 06:47:52;;;;;;;2.08;1.33;;;;;;;;;;6869868;28;20042;-76
2021/05/04 06:51:12;;;;;;;1.42;1.15;;;;;;;;;;6865484;28;20035;-78
2021/05/04 06:54:33;;;;;;;1.23;1.08;;;;;;;;;;6833580;28;20058;-78
2021/05/04 06:57:53;;;;;;;6.53;1.42;;;;;;;;;;6829863;29;20043;-79
2021/05/04 07:01:15;;;;;;;4.05;1.30;;;;;;;;;;6840009;29;20035;-78
2021/05/04 07:04:36;;;;;;;4.00;1.65;;;;;;;;;;6839967;29;20480;-78
2021/05/04 07:07:56;;;;;;;3.72;1.80;;;;;;;;;;6841836;29;20027;-78
2021/05/04 07:11:16;;;;;;;9.65;3.33;;;;;;;;;;6842430;29;20035;-79
2021/05/04 07:14:38;;;;;;;7.35;3.17;;;;;;;;;;6842386;29;20034;-79
2021/05/04 07:17:59;;;;;;;6.72;3.22;;;;;;;;;;6840439;29;20054;-78
2021/05/04 07:21:19;;;;;;;8.40;3.30;;;;;;;;;;6843461;29;20042;-79
2021/05/04 07:24:40;;;;;;;4.57;3.75;;;;;;;;;;6844352;29;20031;-77
2021/05/04 07:28:00;;;;;;;8.90;3.97;;;;;;;;;;6843390;29;20055;-80
2021/05/04 07:31:20;;;;;;;14.30;3.80;;;;;;;;;;6843116;29;20042;-78
2021/05/04 07:34:41;;;;;;;6.35;2.90;;;;;;;;;;6842254;28;20110;-78
2021/05/04 07:38:01;;;;;;;8.32;3.75;;;;;;;;;;6842968;29;20389;-78
2021/05/04 07:41:22;;;;;;;5.55;3.38;;;;;;;;;;6838819;29;20071;-78
2021/05/04 07:44:42;;;;;;;5.95;2.97;;;;;;;;;;6841690;29;20035;-77
2021/05/04 07:52:21;;;;;;;5.25;2.40;;;;;;;;;;7016554;27;831137;-93
2021/05/04 07:55:41;;;;;;;10.38;3.00;;;;;;;;;;7023568;28;20464;-93
2021/05/04 07:59:02;;;;;;;7.72;2.58;;;;;;;;;;7002627;28;20119;-94
2021/05/04 08:02:22;;;;;;;3.20;2.25;;;;;;;;;;7012510;28;20102;-94
2021/05/04 08:05:43;;;;;;;5.07;2.13;;;;;;;;;;7011643;28;20034;-93
2021/05/04 08:09:04;;;;;;;4.07;1.92;;;;;;;;;;7000683;28;20040;-94
2021/05/04 08:12:24;;;;;;;12.27;2.30;;;;;;;;;;7007300;28;20028;-92
2021/05/04 08:15:45;;;;;;;6.38;1.80;;;;;;;;;;7004873;28;20117;-93
2021/05/04 08:19:06;;;;;;;4.43;1.90;;;;;;;;;;7021858;28;20036;-93
2021/05/04 08:22:26;;;;;;;3.83;1.95;;;;;;;;;;7007366;28;20153;-95
2021/05/04 08:25:47;;;;;;;7.25;1.95;;;;;;;;;;7012841;28;20032;-94
2021/05/04 08:29:08;;;;;;;4.45;2.00;;;;;;;;;;7016921;28;20141;-95
2021/05/04 08:32:28;;;;;;;4.30;2.05;;;;;;;;;;7007314;28;20066;-96
2021/05/04 08:35:49;;;;;;;5.63;1.70;;;;;;;;;;7014263;28;20059;-95
2021/05/04 08:39:12;;;;;;;6.53;1.73;;;;;;;;;;7018892;28;20132;-93
2021/05/04 08:42:32;;;;;;;5.28;2.42;;;;;;;;;;7034343;28;20043;-94
2021/05/04 08:45:57;;;;;;;5.18;2.10;;;;;;;;;;7017337;28;20023;-95
2021/05/04 08:49:19;;;;;;;4.43;1.80;;;;;;;;;;7008431;28;20083;-96
2021/05/04 08:52:40;;;;;;;7.68;1.85;;;;;;;;;;7009885;28;20028;-95
2021/05/04 08:56:01;;;;;;;4.03;1.75;;;;;;;;;;7003920;28;20024;-96
2021/05/04 08:59:22;;;;;;;3.08;2.08;;;;;;;;;;6950039;28;20046;-93
2021/05/04 09:02:57;;;;;;;4.07;1.95;;;;;;;;;;6980013;28;20122;-93
2021/05/04 09:06:29;;;;;;;4.03;2.05;;;;;;;;;;6976952;28;20462;-95
2021/05/04 09:10:37;;;;;;;7.30;2.38;;;;;;;;;;6974615;28;20082;-93
2021/05/04 09:17:39;;;;;;;5.28;1.90;;;;;;;;;;6865669;28;20030;-92
2021/05/04 09:21:03;;;;;;;5.45;1.75;;;;;;;;;;6848305;28;20095;-93
2021/05/04 09:24:25;;;;;;;3.00;1.88;;;;;;;;;;6838668;28;20511;-93
2021/05/04 09:27:58;;;;;;;5.47;2.10;;;;;;;;;;6864468;28;20455;-93
2021/05/04 09:31:23;;;;;;;2.83;2.00;;;;;;;;;;6832294;28;20642;-93
2021/05/04 09:35:04;;;;;;;3.55;1.80;;;;;;;;;;6852562;28;20039;-93
2021/05/04 09:38:24;;;;;;;5.05;2.45;;;;;;;;;;6848069;28;20031;-95
2021/05/04 09:41:44;;;;;;;5.03;1.90;;;;;;;;;;6847918;28;20082;-95
2021/05/04 09:45:06;;;;;;;5.10;1.90;;;;;;;;;;6864898;28;20065;-96
2021/05/04 09:48:33;;;;;;;4.90;2.17;;;;;;;;;;6954656;28;20088;-96
2021/05/04 09:52:44;;;;;;;4.18;2.13;;;;;;;;;;6972972;28;20429;-93
2021/05/04 09:56:05;;;;;;;3.63;2.42;;;;;;;;;;6974070;28;20033;-93
2021/05/04 09:59:45;;;;;;;3.13;1.70;;;;;;;;;;6976252;28;20462;-93
2021/05/04 10:03:06;;;;;;;5.38;1.70;;;;;;;;;;6967206;28;20033;-92
2021/05/04 10:06:26;;;;;;;3.00;2.08;;;;;;;;;;6975791;28;20044;-90
2021/05/04 10:09:50;;;;;;;2.83;1.92;;;;;;;;;;6975608;28;20473;-90
2021/05/04 10:13:13;;;;;;;4.47;1.77;;;;;;;;;;6977438;28;20829;-90
2021/05/04 10:16:33;;;;;;;4.38;1.73;;;;;;;;;;6976958;28;20441;-91
2021/05/04 10:19:54;;;;;;;2.63;1.73;;;;;;;;;;6976169;28;20545;-92
2021/05/04 10:23:15;;;;;;;2.78;1.40;;;;;;;;;;6958131;28;20075;-95
2021/05/04 10:26:35;;;;;;;3.70;1.63;;;;;;;;;;6961158;28;20028;-94
2021/05/04 10:29:56;;;;;;;3.00;1.40;;;;;;;;;;6968088;28;20025;-94
2021/05/04 10:33:34;;;;;;;4.38;1.75;;;;;;;;;;6975690;28;20040;-95
2021/05/04 10:36:58;;;;;;;2.05;1.30;;;;;;;;;;6959104;28;20064;-96
2021/05/04 10:40:23;;;;;;;3.50;1.73;;;;;;;;;;6958333;28;20043;-96
2021/05/04 10:43:44;;;;;;;2.90;1.40;;;;;;;;;;6974766;28;20386;-94
2021/05/04 10:47:04;;;;;;;3.47;1.60;;;;;;;;;;6956744;28;20083;-94
2021/05/04 10:50:47;;;;;;;2.83;1.70;;;;;;;;;;6965763;28;20052;-94
2021/05/04 10:54:08;;;;;;;2.88;1.35;;;;;;;;;;6985640;28;20036;-94
2021/05/04 10:57:28;;;;;;;3.58;1.58;;;;;;;;;;6971715;28;20060;-96
2021/05/04 11:00:52;;;;;;;3.05;1.38;;;;;;;;;;6955496;28;20025;-96
2021/05/04 11:04:12;;;;;;;3.42;1.60;;;;;;;;;;6975734;28;20045;-96
2021/05/04 11:07:56;;;;;;;3.13;1.55;;;;;;;;;;6974299;28;20052;-96
2021/05/04 11:11:33;;;;;;;5.07;1.60;;;;;;;;;;6956320;28;20363;-95
2021/05/04 11:15:27;;;;;;;2.55;1.45;;;;;;;;;;6956111;28;20048;-96
2021/05/04 11:19:07;;;;;;;1.80;1.50;;;;;;;;;;6965245;28;20555;-96
2021/05/04 11:22:27;;;;;;;2.75;1.70;;;;;;;;;;6985864;28;20032;-96
2021/05/04 11:25:48;;;;;;;5.68;1.67;;;;;;;;;;6969005;28;20385;-96
2021/05/04 11:29:09;;;;;;;1.60;1.20;;;;;;;;;;6955462;28;20035;-96
2021/05/04 11:32:45;;;;;;;1.45;1.30;;;;;;;;;;6970509;28;20129;-95
2021/05/04 11:36:05;;;;;;;2.70;1.40;;;;;;;;;;6953078;28;20041;-95
2021/05/04 11:39:25;;;;;;;3.78;1.60;;;;;;;;;;6966701;28;20037;-96
2021/05/04 11:42:53;;;;;;;4.03;1.70;;;;;;;;;;6972633;28;20064;-94
2021/05/04 11:46:23;;;;;;;3.92;1.50;;;;;;;;;;6940233;28;20060;-94
2021/05/04 11:49:45;;;;;;;2.05;1.42;;;;;;;;;;6973351;28;20087;-95
2021/05/04 11:53:10;;;;;;;6.68;1.58;;;;;;;;;;6956655;28;20132;-96
2021/05/04 11:56:32;;;;;;;2.50;1.40;;;;;;;;;;6955849;28;20496;-95
2021/05/04 11:59:52;;;;;;;2.83;1.45;;;;;;;;;;6947837;28;20193;-96
2021/05/04 12:03:17;;;;;;;1.52;1.42;;;;;;;;;;6971737;28;20387;-96
2021/05/04 12:06:47;;;;;;;2.65;1.33;;;;;;;;;;6952089;28;20037;-96
2021/05/04 12:10:16;;;;;;;8.60;2.17;;;;;;;;;;6972339;28;20035;-95
2021/05/04 12:13:37;;;;;;;1.67;1.40;;;;;;;;;;6973701;28;20032;-94
2021/05/04 12:16:58;;;;;;;3.15;1.42;;;;;;;;;;6973448;28;20061;-92
2021/05/04 12:20:19;;;;;;;5.35;1.88;;;;;;;;;;6973139;28;20041;-96
2021/05/04 12:23:43;;;;;;;2.13;1.35;;;;;;;;;;6974600;28;20032;-96
2021/05/04 12:27:04;;;;;;;4.18;1.33;;;;;;;;;;6974532;28;20097;-94
2021/05/04 12:33:56;;;;;;;3.20;1.38;;;;;;;;;;7129967;22;20061;-95
2021/05/04 12:37:17;;;;;;;4.97;1.52;;;;;;;;;;6917920;28;20030;-96
2021/05/04 12:40:40;;;;;;;7.03;1.67;;;;;;;;;;6914927;28;20103;-93
2021/05/04 12:44:19;;;;;;;3.50;1.73;;;;;;;;;;6952506;28;20068;-93
2021/05/04 12:47:53;;;;;;;4.95;1.45;;;;;;;;;;6951272;28;20104;-89
2021/05/04 12:51:15;;;;;;;4.35;1.70;;;;;;;;;;6933411;28;20097;-94
2021/05/04 12:54:37;;;;;;;4.05;1.80;;;;;;;;;;6917194;28;20052;-95
2021/05/04 12:58:12;;;;;;;4.88;1.30;;;;;;;;;;6933229;28;20021;-94
2021/05/04 13:01:41;;;;;;;5.97;2.00;;;;;;;;;;6932182;28;20060;-93
2021/05/04 13:05:08;;;;;;;6.65;1.70;;;;;;;;;;6951448;28;20041;-93
2021/05/04 13:08:48;;;;;;;7.25;1.85;;;;;;;;;;6949218;28;20100;-93
2021/05/04 13:33:39;;;;;;;7.07;2.38;;;;;;;;;;6933278;28;20060;-95
2021/05/04 13:37:00;;;;;;;6.43;1.92;;;;;;;;;;6944123;28;20030;-93
2021/05/04 13:48:24;;;;;;;8.55;1.60;;;;;;;;;;6928373;28;20038;-95
2021/05/04 13:51:09;;;;;;;5.70;1.60;;;;;;;;;;6913954;28;20089;-92
2021/05/04 13:54:30;;;;;;;3.45;1.50;;;;;;;;;;6928216;28;20405;-92
2021/05/04 13:57:54;;;;;;;6.25;1.70;;;;;;;;;;6916836;28;20036;-92
2021/05/04 14:01:20;;;;;;;4.05;1.42;;;;;;;;;;6932361;28;20036;-91
2021/05/04 14:26:42;;;;;;;5.07;1.73;;;;;;;;;;6950041;28;20107;-93
2021/05/04 14:30:04;;;;;;;2.38;1.40;;;;;;;;;;6917256;28;20132;-94
2021/05/04 14:33:24;;;;;;;10.15;1.40;;;;;;;;;;6923108;28;20060;-95
2021/05/04 15:01:50;;;;;;;4.38;1.70;;;;;;;;;;6916142;28;20117;-95
2021/05/04 15:05:14;;;;;;;5.93;1.55;;;;;;;;;;6901224;28;20056;-95
2021/05/04 15:08:39;;;;;;;5.70;1.45;;;;;;;;;;6919294;28;20049;-93
2021/05/04 15:11:59;;;;;;;9.32;1.67;;;;;;;;;;6919260;28;20037;-93
2021/05/04 15:15:31;;;;;;;4.28;1.42;;;;;;;;;;6912084;28;20048;-92
2021/05/04 15:22:31;;;;;;;3.70;1.60;;;;;;;;;;6919808;28;20022;-93
2021/05/04 15:25:55;;;;;;;9.40;2.15;;;;;;;;;;6902082;28;20032;-89
2021/05/04 15:29:15;;;;;;;4.72;1.90;;;;;;;;;;6918722;28;20041;-91
2021/05/04 15:32:44;;;;;;;7.65;2.10;;;;;;;;;;6930723;28;20133;-86
2021/05/04 15:36:04;;;;;;;2.97;1.80;;;;;;;;;;6947590;28;20025;-88
2021/05/04 15:39:25;;;;;;;5.28;2.30;;;;;;;;;;6946346;28;20033;-87
2021/05/04 15:42:45;;;;;;;8.07;2.58;;;;;;;;;;6928792;28;20021;-89
2021/05/04 15:49:34;;;;;;;5.72;2.28;;;;;;;;;;6947616;28;20033;-87
2021/05/04 16:07:05;;;;;;;5.78;2.60;;;;;;;;;;6944377;28;20025;-86
2021/05/04 16:10:25;;;;;;;6.40;2.58;;;;;;;;;;6944627;28;20040;-85
2021/05/04 16:13:46;;;;;;;10.70;2.72;;;;;;;;;;6949706;28;20025;-85
2021/05/04 16:17:07;;;;;;;10.80;2.55;;;;;;;;;;6949815;28;20371;-85
2021/05/04 16:27:20;;;;;;;7.82;2.35;;;;;;;;;;6949683;28;20034;-87
2021/05/04 16:30:40;;;;;;;5.18;2.45;;;;;;;;;;6949476;28;20033;-86
2021/05/04 16:34:00;;;;;;;7.50;2.85;;;;;;;;;;6949803;28;20146;-86
2021/05/04 16:37:22;;;;;;;11.20;3.05;;;;;;;;;;6949314;28;20034;-86
2021/05/04 16:40:42;;;;;;;7.93;2.72;;;;;;;;;;6949570;28;20056;-87
2021/05/04 16:44:04;;;;;;;5.95;2.53;;;;;;;;;;6948739;28;20396;-87
2021/05/04 16:47:24;;;;;;;8.77;3.25;;;;;;;;;;6949186;28;20064;-87
2021/05/04 16:50:44;;;;;;;3.90;2.47;;;;;;;;;;6947762;28;20120;-87
2021/05/04 16:54:05;;;;;;;7.57;2.42;;;;;;;;;;6929871;28;20069;-86
2021/05/04 16:57:28;;;;;;;6.82;2.03;;;;;;;;;;6947357;28;20467;-85
2021/05/04 17:00:49;;;;;;;6.97;2.60;;;;;;;;;;6946964;28;20044;-85
2021/05/04 17:04:10;;;;;;;7.63;2.10;;;;;;;;;;6913427;28;20439;-87
2021/05/04 17:07:35;;;;;;;8.35;2.30;;;;;;;;;;6947425;28;20466;-85
2021/05/04 17:10:56;;;;;;;23.00;2.88;;;;;;;;;;6928562;28;20068;-87
2021/05/04 17:14:16;;;;;;;7.35;2.42;;;;;;;;;;6944913;28;20033;-86
2021/05/04 17:17:37;;;;;;;8.77;2.88;;;;;;;;;;6929075;28;20040;-86
2021/05/04 17:20:58;;;;;;;4.65;2.15;;;;;;;;;;6945034;28;20025;-86
2021/05/04 17:24:19;;;;;;;18.70;3.40;;;;;;;;;;6927882;28;20478;-87
2021/05/04 17:27:39;;;;;;;7.25;2.63;;;;;;;;;;6946651;28;20032;-86
2021/05/04 17:31:00;;;;;;;11.68;3.20;;;;;;;;;;6945392;28;20609;-87
2021/05/04 17:34:20;;;;;;;5.80;2.63;;;;;;;;;;6945881;28;20464;-87
2021/05/04 17:37:42;;;;;;;7.70;3.10;;;;;;;;;;6945755;28;20021;-87
2021/05/04 17:41:05;;;;;;;6.03;2.72;;;;;;;;;;6946293;28;20060;-87
2021/05/04 17:44:25;;;;;;;11.95;3.00;;;;;;;;;;6946433;28;20030;-87
2021/05/04 17:47:45;;;;;;;7.20;3.08;;;;;;;;;;6946159;28;20490;-87
2021/05/04 17:51:11;;;;;;;12.88;3.40;;;;;;;;;;6928004;28;20026;-87
2021/05/04 17:54:32;;;;;;;6.75;2.78;;;;;;;;;;6929250;28;20022;-86
2021/05/04 17:57:52;;;;;;;5.65;2.90;;;;;;;;;;6947086;28;20030;-86
2021/05/04 18:01:13;;;;;;;9.23;3.30;;;;;;;;;;6944617;28;20069;-87
2021/05/04 18:04:36;;;;;;;9.15;3.47;;;;;;;;;;6944027;28;20041;-87
2021/05/04 18:07:59;;;;;;;17.63;3.55;;;;;;;;;;6943752;28;20112;-87
2021/05/04 18:11:20;;;;;;;7.15;2.97;;;;;;;;;;6944809;28;20033;-87
2021/05/04 18:14:51;;;;;;;11.02;3.72;;;;;;;;;;6943897;28;20103;-87
2021/05/04 18:21:50;;;;;;;8.90;3.65;;;;;;;;;;6938925;28;20463;-87
2021/05/04 18:25:11;;;;;;;9.18;3.72;;;;;;;;;;6945542;28;20137;-92
2021/05/04 18:28:36;;;;;;;6.45;2.80;;;;;;;;;;6910899;28;20029;-93
2021/05/04 18:31:59;;;;;;;10.00;3.47;;;;;;;;;;6945475;28;20475;-93
2021/05/04 18:35:22;;;;;;;8.77;3.17;;;;;;;;;;6926098;28;20064;-93
2021/05/04 20:08:21;;;;;;;13.45;2.97;;;;;;;;;;6941981;28;20045;-90
2021/05/04 20:11:54;;;;;;;9.68;3.25;;;;;;;;;;6924962;28;20033;-89
2021/05/04 20:15:14;;;;;;;6.60;2.60;;;;;;;;;;6940520;28;20036;-89
2021/05/04 20:18:35;;;;;;;12.23;3.53;;;;;;;;;;6942692;28;20030;-88
2021/05/04 20:21:55;;;;;;;14.07;2.88;;;;;;;;;;6913859;28;20418;-88
2021/05/04 20:25:17;;;;;;;7.93;2.75;;;;;;;;;;6941912;28;20034;-87
2021/05/04 20:28:37;;;;;;;8.40;2.70;;;;;;;;;;6940808;28;20102;-87
2021/05/04 20:31:58;;;;;;;11.30;2.88;;;;;;;;;;6942787;28;20454;-87
2021/05/04 20:35:18;;;;;;;7.90;2.72;;;;;;;;;;6926684;28;20136;-88
2021/05/04 20:38:39;;;;;;;6.93;2.80;;;;;;;;;;6925924;28;20528;-88
2021/05/04 20:41:59;;;;;;;9.85;2.95;;;;;;;;;;6941676;28;20467;-88
2021/05/04 20:45:20;;;;;;;15.88;2.65;;;;;;;;;;6942379;28;20513;-88
2021/05/04 20:48:40;;;;;;;14.25;3.22;;;;;;;;;;6942140;28;20022;-88
2021/05/04 20:52:00;;;;;;;11.15;2.90;;;;;;;;;;6942052;28;20056;-88
2021/05/04 20:55:21;;;;;;;9.25;2.75;;;;;;;;;;6941639;28;20037;-89
2021/05/04 20:58:41;;;;;;;5.97;2.85;;;;;;;;;;6945731;28;20422;-88
2021/05/04 21:02:02;;;;;;;11.38;2.83;;;;;;;;;;6943763;28;20424;-91
2021/05/04 21:05:22;;;;;;;12.75;2.45;;;;;;;;;;6926585;28;20048;-87
2021/05/04 21:08:44;;;;;;;12.88;2.80;;;;;;;;;;6941637;28;20533;-89
2021/05/04 21:15:33;;;;;;;7.93;3.83;;;;;;;;;;6932865;28;20030;-86
2021/05/04 21:18:58;;;;;;;31.15;5.03;;;;;;;;;;6942823;28;20030;-83
2021/05/04 21:22:31;;;;;;;11.80;3.50;;;;;;;;;;6946817;28;20030;-86
2021/05/04 21:26:05;;;;;;;12.10;4.32;;;;;;;;;;6946644;28;20025;-83
2021/05/04 21:29:26;;;;;;;25.63;3.90;;;;;;;;;;6945779;28;20113;-85
2021/05/04 21:32:47;;;;;;;9.02;3.85;;;;;;;;;;6944668;28;20049;-89
2021/05/04 21:36:09;;;;;;;12.27;3.55;;;;;;;;;;6903731;28;20036;-89
2021/05/04 21:39:30;;;;;;;10.38;3.97;;;;;;;;;;6915130;28;20464;-89
2021/05/04 21:42:51;;;;;;;12.10;4.00;;;;;;;;;;6898643;28;20036;-89
2021/05/04 21:46:11;;;;;;;8.77;2.42;;;;;;;;;;6903246;28;20540;-90
2021/05/04 21:49:32;;;;;;;9.48;2.90;;;;;;;;;;6911561;28;20105;-89
2021/05/04 21:52:53;;;;;;;11.30;2.95;;;;;;;;;;6908575;28;20053;-89
2021/05/04 21:56:13;;;;;;;7.15;1.95;;;;;;;;;;6906400;28;20458;-89
2021/05/04 21:59:34;;;;;;;11.63;2.67;;;;;;;;;;6913993;28;20467;-89
2021/05/04 22:02:54;;;;;;;4.60;2.38;;;;;;;;;;6921336;28;20534;-89
2021/05/04 22:06:15;;;;;;;6.07;2.70;;;;;;;;;;6926663;28;20030;-89
2021/05/04 22:09:35;;;;;;;7.82;2.22;;;;;;;;;;6912654;28;20387;-90
2021/05/04 22:13:11;;;;;;;5.95;2.50;;;;;;;;;;6898584;28;20037;-91
2021/05/04 22:17:11;;;;;;;12.48;2.83;;;;;;;;;;6913350;28;20041;-88
2021/05/04 22:34:55;;;;;;;5.60;2.15;;;;;;;;;;6923067;28;20029;-88
2021/05/04 22:38:16;;;;;;;9.95;2.20;;;;;;;;;;6924518;28;20037;-88
2021/05/04 22:41:45;;;;;;;4.55;2.20;;;;;;;;;;6931838;28;20443;-87
2021/05/04 22:46:10;;;;;;;10.85;2.80;;;;;;;;;;6944876;28;20028;-87
2021/05/04 23:18:03;;;;;;;8.27;2.35;;;;;;;;;;6943448;28;20029;-90
2021/05/04 23:21:23;;;;;;;4.15;2.28;;;;;;;;;;6909392;28;20521;-91
2021/05/04 23:24:44;;;;;;;8.50;2.35;;;;;;;;;;6943277;28;20517;-91
2021/05/04 23:28:04;;;;;;;5.80;2.30;;;;;;;;;;6926783;28;20026;-90
2021/05/04 23:31:25;;;;;;;6.20;2.30;;;;;;;;;;6925414;28;20057;-89
2021/05/04 23:34:45;;;;;;;5.28;2.20;;;;;;;;;;6943858;28;20037;-89
2021/05/04 23:38:06;;;;;;;4.55;2.22;;;;;;;;;;6925763;28;20094;-91
2021/05/04 23:41:26;;;;;;;11.18;2.42;;;;;;;;;;6943370;28;20463;-91
2021/05/04 23:44:47;;;;;;;5.72;2.75;;;;;;;;;;6943273;28;20028;-92
2021/05/04 23:48:07;;;;;;;19.75;2.45;;;;;;;;;;6925880;28;20028;-90
2021/05/04 23:51:27;;;;;;;3.75;2.00;;;;;;;;;;6909447;28;20029;-91
2021/05/04 23:54:48;;;;;;;4.07;2.20;;;;;;;;;;6925821;28;20018;-91
2021/05/04 23:58:10;;;;;;;8.45;2.15;;;;;;;;;;6943478;28;20426;-91
